Flight Track Log - Related Links

Times and Time Zones

All times are in EST time to prevent confusion due to time zone crossing. See the SWA363 flight status page for this flight to view local times or setup timezone preferences in your user account.

Time Position Orientation Groundspeed Altitude Reporting Facility
EST Latitude Longitude Course Direction KTS MPH feet Rate Location/Type
Tue 11:15:39 PM 39.2000 -76.8333 288° West 231 266 5,800  Level Potomac TRACON
Tue 11:17:19 PM 39.2119 -76.9658 277° West 255 293 12,500 2,852 Climbing Washington Center
Tue 11:18:21 PM 39.2131 -77.0594 271° West 256 295 13,500 1,736 Climbing Washington Center
Tue 11:19:20 PM 39.1825 -77.1661 250° West 294 338 16,000 2,542 Climbing Washington Center
Tue 11:20:00 PM 39.1199 -77.2161 211° Southwest  Level FlightAware Approximate
Tue 11:20:19 PM 39.1475 -77.2778 248° West 312 359 18,500  Level Washington Center
Tue 11:21:20 PM 39.1125 -77.3892 248° West 334 384 21,300 2,150 Climbing Washington Center
Tue 11:22:19 PM 39.0775 -77.5033 248° West 339 390 22,800 1,950 Climbing Washington Center
Tue 11:23:20 PM 39.0378 -77.6306 248° West 351 404 25,200 2,450 Climbing Washington Center
Tue 11:24:19 PM 39.0069 -77.7286 248° West 343 395 27,700 2,182 Climbing Washington Center
Tue 11:25:21 PM 38.9761 -77.8264 248° West 331 381 29,600 2,100 Climbing Washington Center
Tue 11:26:19 PM 38.9339 -77.9586 248° West 331 381 31,900 1,220 Climbing Washington Center
Tue 11:27:19 PM 38.8983 -78.0694 248° West 331 381 32,000 1,500 Climbing Washington Center
Tue 11:28:19 PM 38.8628 -78.1778 247° West 331 381 34,900 2,017 Climbing Washington Center
Tue 11:29:18 PM 38.8519 -78.2811 262° West 316 364 36,000 545 Climbing Washington Center
Tue 11:30:20 PM 38.8517 -78.3906 270° West 316 364 36,000  Level Washington Center
Tue 11:31:20 PM 38.8511 -78.5025 270° West 310 357 36,000  Level Washington Center
Tue 11:32:19 PM 38.8483 -78.6117 268° West 310 357 36,000  Level Washington Center
Tue 11:33:19 PM 38.8475 -78.7236 269° West 310 357 36,000  Level Washington Center
Tue 11:34:19 PM 38.8469 -78.8303 270° West 310 357 36,000  Level Washington Center
Tue 11:35:20 PM 38.8439 -78.9419 268° West 310 357 36,000  Level Washington Center
Tue 11:36:19 PM 38.8408 -79.0511 268° West 310 357 36,000  Level Washington Center
Tue 11:37:19 PM 38.8397 -79.1603 269° West 310 357 36,000  Level Washington Center
Tue 11:38:19 PM 38.8411 -79.2483 271° West 310 357 36,000  Level Washington Center
Tue 11:39:19 PM 38.8394 -79.3683 269° West 310 357 36,000  Level Washington Center
Tue 11:40:20 PM 38.8358 -79.4800 268° West 310 357 36,000  Level Washington Center
Tue 11:41:19 PM 38.8342 -79.5944 269° West 310 357 36,000  Level Washington Center
Tue 11:42:20 PM 38.8325 -79.7064 269° West 316 364 36,000  Level Washington Center
Tue 11:43:19 PM 38.8308 -79.8183 269° West 321 369 36,000  Level Washington Center
Tue 11:44:25 PM 38.8233 -79.9469 266° West 311 358 36,000  Level Indianapolis Center
Tue 11:45:26 PM 38.8208 -80.0572 268° West 311 358 36,000  Level Indianapolis Center
Tue 11:46:27 PM 38.8172 -80.1681 268° West 311 358 36,000  Level Indianapolis Center
Tue 11:47:28 PM 38.8147 -80.2786 268° West 311 358 36,000  Level Indianapolis Center
Tue 11:48:29 PM 38.8106 -80.3886 267° West 311 358 36,000  Level Indianapolis Center
Tue 11:49:30 PM 38.8081 -80.4978 268° West 310 357 36,000  Level Indianapolis Center
Tue 11:50:31 PM 38.8050 -80.6069 268° West 310 357 36,000  Level Indianapolis Center
Tue 11:51:32 PM 38.8011 -80.7175 267° West 309 356 36,000  Level Indianapolis Center
Tue 11:52:33 PM 38.7975 -80.8258 268° West 309 356 36,000  Level Indianapolis Center
Tue 11:53:34 PM 38.7944 -80.9350 268° West 309 356 36,000  Level Indianapolis Center
Tue 11:54:34 PM 38.7908 -81.0439 268° West 308 354 36,000  Level Indianapolis Center
Tue 11:55:35 PM 38.7878 -81.1522 268° West 308 354 36,000  Level Indianapolis Center
Tue 11:56:36 PM 38.7842 -81.2617 268° West 307 353 36,000  Level Indianapolis Center
Tue 11:57:37 PM 38.7961 -81.3672 278° West 306 352 36,000  Level Indianapolis Center
Tue 11:58:38 PM 38.8108 -81.4922 279° West 303 349 36,000  Level Indianapolis Center
Tue 11:59:39 PM 38.8236 -81.5953 279° West 303 349 36,000  Level Indianapolis Center
Wed 12:00:40 AM 38.8364 -81.6997 279° West 302 348 36,000  Level Indianapolis Center
Wed 12:01:40 AM 38.8489 -81.8053 279° West 302 348 36,000  Level Indianapolis Center
Wed 12:02:41 AM 38.8622 -81.9114 279° West 302 348 36,000  Level Indianapolis Center
Wed 12:03:42 AM 38.8739 -82.0161 278° West 301 346 36,000  Level Indianapolis Center
Wed 12:04:43 AM 38.8861 -82.1219 278° West 301 346 36,000  Level Indianapolis Center
Wed 12:05:44 AM 38.8983 -82.2272 279° West 301 346 36,000  Level Indianapolis Center
Wed 12:06:44 AM 38.9100 -82.3322 278° West 301 346 36,000  Level Indianapolis Center
Wed 12:07:45 AM 38.9231 -82.4461 278° West 300 345 36,000  Level Indianapolis Center
Wed 12:08:46 AM 38.9336 -82.5431 278° West 300 345 36,000  Level Indianapolis Center
Wed 12:09:47 AM 38.9444 -82.6492 278° West 300 345 36,000  Level Indianapolis Center
Wed 12:10:47 AM 38.9569 -82.7544 279° West 300 345 36,000  Level Indianapolis Center
Wed 12:11:48 AM 38.9681 -82.8617 278° West 300 345 36,000  Level Indianapolis Center
Wed 12:12:49 AM 38.9794 -82.9664 278° West 300 345 36,000  Level Indianapolis Center
Wed 12:13:50 AM 38.9931 -83.0939 278° West 299 344 36,000  Level Indianapolis Center
Wed 12:14:50 AM 39.0044 -83.1981 278° West 299 344 36,000  Level Indianapolis Center
Wed 12:15:51 AM 39.0153 -83.3017 278° West 298 343 36,000  Level Indianapolis Center
Wed 12:16:52 AM 39.0258 -83.4067 277° West 298 343 36,000  Level Indianapolis Center
Wed 12:17:52 AM 39.0375 -83.5119 278° West 298 343 36,000  Level Indianapolis Center
Wed 12:18:53 AM 39.0478 -83.6158 277° West 297 342 36,000  Level Indianapolis Center
Wed 12:19:54 AM 39.0581 -83.7208 277° West 297 342 36,000  Level Indianapolis Center
Wed 12:20:54 AM 39.0689 -83.8258 278° West 297 342 36,000  Level Indianapolis Center
Wed 12:21:55 AM 39.0778 -83.9292 276° West 296 341 36,000  Level Indianapolis Center
Wed 12:22:56 AM 39.0886 -84.0325 278° West 294 338 36,000  Level Indianapolis Center
Wed 12:23:56 AM 39.0989 -84.1369 277° West 294 338 36,000  Level Indianapolis Center
Wed 12:24:57 AM 39.1086 -84.2403 277° West 294 338 36,000  Level Indianapolis Center
Wed 12:25:58 AM 39.1186 -84.3461 277° West 294 338 36,000  Level Indianapolis Center
Wed 12:26:58 AM 39.1283 -84.4514 277° West 294 338 36,000  Level Indianapolis Center
Wed 12:27:59 AM 39.1389 -84.5556 277° West 294 338 36,000  Level Indianapolis Center
Wed 12:29:00 AM 39.1486 -84.6617 277° West 296 341 36,000  Level Indianapolis Center
Wed 12:30:00 AM 39.1583 -84.7678 277° West 296 341 36,000  Level Indianapolis Center
Wed 12:31:01 AM 39.1678 -84.8714 277° West 296 341 36,000  Level Indianapolis Center
Wed 12:32:01 AM 39.1781 -84.9831 277° West 296 341 36,000  Level Indianapolis Center
Wed 12:33:02 AM 39.1886 -85.0964 277° West 295 339 36,000  Level Indianapolis Center
Wed 12:34:03 AM 39.1969 -85.1917 276° West 296 341 36,000  Level Indianapolis Center
Wed 12:35:03 AM 39.2058 -85.2983 276° West 296 341 36,000  Level Indianapolis Center
Wed 12:36:04 AM 39.2156 -85.4025 277° West 296 341 36,000  Level Indianapolis Center
Wed 12:37:05 AM 39.2233 -85.5072 276° West 296 341 36,000  Level Indianapolis Center
Wed 12:38:05 AM 39.2331 -85.6142 277° West 296 341 36,000  Level Indianapolis Center
Wed 12:39:06 AM 39.2417 -85.7197 276° West 296 341 36,000  Level Indianapolis Center
Wed 12:40:06 AM 39.2525 -85.8489 276° West 297 342 36,000  Level Indianapolis Center
Wed 12:41:07 AM 39.2608 -85.9539 276° West 297 342 36,000  Level Indianapolis Center
Wed 12:42:07 AM 39.2700 -86.0614 276° West 298 343 36,000  Level Indianapolis Center
Wed 12:43:08 AM 39.2781 -86.1669 276° West 298 343 36,000  Level Indianapolis Center
Wed 12:44:08 AM 39.2864 -86.2744 276° West 298 343 36,000  Level Indianapolis Center
Wed 12:45:09 AM 39.2947 -86.3819 276° West 298 343 36,000  Level Indianapolis Center
Wed 12:46:09 AM 39.3028 -86.4897 276° West 298 343 36,000  Level Indianapolis Center
Wed 12:47:10 AM 39.3117 -86.5967 276° West 298 343 36,000  Level Indianapolis Center
Wed 12:48:10 AM 39.3192 -86.7044 275° West 299 344 36,000  Level Indianapolis Center
Wed 12:49:11 AM 39.3278 -86.8122 276° West 299 344 36,000  Level Indianapolis Center
Wed 12:50:11 AM 39.3350 -86.9186 275° West 299 344 36,000  Level Indianapolis Center
Wed 12:51:12 AM 39.3433 -87.0258 276° West 299 344 36,000  Level Indianapolis Center
Wed 12:52:12 AM 39.3494 -87.1342 274° West 299 344 36,000  Level Indianapolis Center
Wed 12:53:13 AM 39.3578 -87.2428 276° West 300 345 36,000  Level Indianapolis Center
Wed 12:54:13 AM 39.3653 -87.3503 275° West 300 345 36,000  Level Indianapolis Center
Wed 12:55:14 AM 39.3728 -87.4575 275° West 300 345 36,000  Level Indianapolis Center
Wed 12:56:14 AM 39.3797 -87.5639 275° West 301 346 36,000  Level Indianapolis Center
Wed 12:57:15 AM 39.3867 -87.6700 275° West 300 345 36,000  Level Indianapolis Center
Wed 12:58:15 AM 39.3939 -87.7769 275° West 300 345 36,000  Level Indianapolis Center
Wed 12:59:15 AM 39.4008 -87.8839 275° West 300 345 36,000  Level Indianapolis Center
Wed 01:00:16 AM 39.4075 -87.9906 275° West 300 345 36,000  Level Indianapolis Center
Wed 01:01:16 AM 39.4147 -88.0978 275° West 300 345 36,000  Level Indianapolis Center
Wed 01:01:55 AM 39.4200 -88.1761 275° West 301 346 36,000  Level Kansas City Center
Wed 01:02:56 AM 39.4261 -88.2844 274° West 300 345 36,000  Level Kansas City Center
Wed 01:03:57 AM 39.4322 -88.3925 274° West 300 345 36,000  Level Kansas City Center
Wed 01:04:57 AM 39.4389 -88.5000 275° West 300 345 36,000  Level Kansas City Center
Wed 01:06:00 AM 39.4447 -88.6003 274° West 300 345 36,000  Level Kansas City Center
Wed 01:06:58 AM 39.4500 -88.7092 274° West 302 348 36,000  Level Kansas City Center
Wed 01:08:01 AM 39.4567 -88.8186 275° West 302 348 36,000  Level Kansas City Center
Wed 01:09:00 AM 39.4633 -88.9275 275° West 303 349 36,000  Level Kansas City Center
Wed 01:10:02 AM 39.4686 -89.0367 274° West 303 349 36,000  Level Kansas City Center
Wed 01:11:02 AM 39.4747 -89.1442 274° West 303 349 36,000  Level Kansas City Center
Wed 01:12:01 AM 39.4800 -89.2539 274° West 303 349 36,000  Level Kansas City Center
Wed 01:13:00 AM 39.4861 -89.3761 274° West 303 349 36,000  Level Kansas City Center
Wed 01:14:01 AM 39.4925 -89.4856 274° West 303 349 36,000  Level Kansas City Center
Wed 01:15:01 AM 39.4975 -89.5950 273° West 303 349 36,000  Level Kansas City Center
Wed 01:16:04 AM 39.5028 -89.7042 274° West 304 350 36,000  Level Kansas City Center
Wed 01:17:02 AM 39.5083 -89.8158 274° West 308 354 36,000  Level Kansas City Center
Wed 01:18:02 AM 39.5144 -89.9253 274° West 308 354 36,000  Level Kansas City Center
Wed 01:19:03 AM 39.5189 -90.0381 273° West 310 357 36,000  Level Kansas City Center
Wed 01:20:03 AM 39.5244 -90.1486 274° West 310 357 36,000  Level Kansas City Center
Wed 01:21:03 AM 39.5217 -90.2594 268° West 310 357 36,000  Level Kansas City Center
Wed 01:22:04 AM 39.5175 -90.3694 267° West 310 357 36,000  Level Kansas City Center
Wed 01:23:04 AM 39.5142 -90.4797 268° West 310 357 36,000  Level Kansas City Center
Wed 01:24:04 AM 39.5103 -90.5883 267° West 309 356 36,000  Level Kansas City Center
Wed 01:25:05 AM 39.5061 -90.6986 267° West 309 356 36,000  Level Kansas City Center
Wed 01:26:05 AM 39.5025 -90.8089 268° West 309 356 36,000  Level Kansas City Center
Wed 01:27:05 AM 39.4986 -90.9178 267° West 308 354 36,000  Level Kansas City Center
Wed 01:28:06 AM 39.4939 -91.0494 267° West 307 353 36,000  Level Kansas City Center
Wed 01:29:06 AM 39.4892 -91.1608 267° West 308 354 36,000  Level Kansas City Center
Wed 01:30:06 AM 39.4844 -91.2711 267° West 308 354 36,000  Level Kansas City Center
Wed 01:31:07 AM 39.4806 -91.3822 267° West 308 354 36,000  Level Kansas City Center
Wed 01:32:10 AM 39.4753 -91.4936 267° West 309 356 36,000  Level Kansas City Center
Wed 01:33:09 AM 39.4706 -91.6050 267° West 309 356 36,000  Level Kansas City Center
Wed 01:34:08 AM 39.4667 -91.7131 267° West 310 357 36,000  Level Kansas City Center
Wed 01:35:11 AM 39.4611 -91.8242 266° West 310 357 36,000  Level Kansas City Center
Wed 01:36:08 AM 39.4561 -91.9353 267° West 310 357 36,000  Level Kansas City Center
Wed 01:37:09 AM 39.4522 -92.0453 267° West 310 357 36,000  Level Kansas City Center
Wed 01:38:11 AM 39.4467 -92.1578 266° West 310 357 36,000  Level Kansas City Center
Wed 01:39:09 AM 39.4419 -92.2697 267° West 311 358 36,000  Level Kansas City Center
Wed 01:40:09 AM 39.4358 -92.3817 266° West 311 358 36,000  Level Kansas City Center
Wed 01:41:12 AM 39.4297 -92.4939 266° West 311 358 36,000  Level Kansas City Center
Wed 01:42:10 AM 39.4250 -92.6089 267° West 313 360 36,000  Level Kansas City Center
Wed 01:43:10 AM 39.4189 -92.7214 266° West 314 361 36,000  Level Kansas City Center
Wed 01:44:10 AM 39.4122 -92.8339 266° West 314 361 36,000 -298 Level Kansas City Center
Wed 01:45:11 AM 39.4072 -92.9486 267° West 314 361 35,400 -1,785 Descending Kansas City Center
Wed 01:46:11 AM 39.3997 -93.0644 265° West 320 368 32,400 -2,750 Descending Kansas City Center
Wed 01:47:11 AM 39.3939 -93.1742 266° West 315 362 29,900 -2,350 Descending Kansas City Center
Wed 01:48:11 AM 39.3875 -93.2792 266° West 300 345 27,700 -2,083 Descending Kansas City Center
Wed 01:49:12 AM 39.3817 -93.3731 265° West 273 314 25,700 -1,983 Descending Kansas City Center
Wed 01:50:12 AM 39.3764 -93.4669 266° West 266 306 23,700 -2,050 Descending Kansas City Center
Wed 01:51:12 AM 39.3717 -93.5661 267° West 272 313 21,600 -2,150 Descending Kansas City Center
Wed 01:52:12 AM 39.3650 -93.6600 265° West 268 308 19,400 -2,331 Descending Kansas City Center
Wed 01:53:13 AM 39.3533 -93.7628 262° West 260 299 16,900 -2,281 Descending Kansas City Center
Wed 01:54:13 AM 39.3339 -93.8542 255° West 271 312 14,800 -2,400 Descending Kansas City Center
Wed 01:55:13 AM 39.3172 -93.9469 257° West 276 318 12,100 -2,250 Descending Kansas City Center
Wed 01:56:13 AM 39.2972 -94.0550 257° West 278 320 10,300 -1,700 Descending Kansas City Center
Wed 01:57:13 AM 39.2811 -94.1408 256° West 263 303 8,700 -1,645 Descending Kansas City Center
Wed 01:58:17 AM 39.2644 -94.2247 256° West 256 295 6,900 -1,736 Descending Kansas City Center
Wed 01:59:14 AM 39.2489 -94.3125 257° West 261 300 5,200 -1,487 Descending Kansas City Center
Wed 02:00:14 AM 39.2342 -94.4106 259° West 253 291 4,000 -744 Descending Kansas City Center
Wed 02:01:15 AM 39.2208 -94.4944 258° West 252 290 3,700 -500 Descending Kansas City Center
Wed 02:02:14 AM 39.2083 -94.5758 259° West 244 281 3,000 -353 Descending Kansas City Center
Wed 02:03:14 AM 39.2000 -94.6533 262° West 230 265 3,000 -98 Level Kansas City Center
Wed 02:04:16 AM 39.2203 -94.7214 291° West 177 204 2,800 -590 Descending Kansas City Center
Wed 02:05:16 AM 39.2514 -94.7164 North 129 148 1,800 -850 Descending Kansas City Center
Wed 02:06:16 AM 39.2814 -94.7083 12° North 116 133 1,100 -700 Descending Kansas City Center

Login

Don't have an account? Register now (free) for customized features, flight alerts, and more!